Time;durP1;ratioP1;P1;durP2;ratioP2;P2;SDS_P1;SDS_P2;PMS_P1;PMS_P2;Temp;Humidity;BMP_temperature;BMP_pressure;BME280_temperature;BME280_humidity;BME280_pressure;Samples;Min_cycle;Max_cycle;Signal;HPM_P1;HPM_P2
2023/04/06 00:00:14;;;;;;;20.33;12.77;;;2.20;99.90;;;;;;5022434;28;20205;-78
2023/04/06 00:02:41;;;;;;;24.27;12.40;;;2.50;99.90;;;;;;5023924;28;20233;-78
2023/04/06 00:05:08;;;;;;;20.30;13.27;;;2.50;99.90;;;;;;5029751;28;20198;-80
2023/04/06 00:07:35;;;;;;;23.50;12.23;;;2.70;99.90;;;;;;5024859;28;20237;-78
2023/04/06 00:10:03;;;;;;;25.03;12.47;;;2.40;99.90;;;;;;5024789;28;20676;-80
2023/04/06 00:12:30;;;;;;;24.27;12.37;;;2.40;99.90;;;;;;5020545;28;20209;-79
2023/04/06 00:14:56;;;;;;;19.60;11.63;;;2.40;99.90;;;;;;5020188;28;20265;-78
2023/04/06 00:17:23;;;;;;;18.00;11.53;;;2.40;99.90;;;;;;5022051;28;20253;-79
2023/04/06 00:19:50;;;;;;;20.77;11.73;;;2.40;99.90;;;;;;5043114;28;20233;-80
2023/04/06 00:22:17;;;;;;;18.50;11.47;;;2.40;99.90;;;;;;5020330;28;20249;-79
2023/04/06 00:24:44;;;;;;;19.70;11.57;;;2.30;99.90;;;;;;5023759;28;20648;-78
2023/04/06 00:27:11;;;;;;;19.20;11.57;;;2.30;99.90;;;;;;5024810;28;20291;-78
2023/04/06 00:29:38;;;;;;;16.33;9.83;;;2.30;99.90;;;;;;5021716;28;20209;-78
2023/04/06 00:32:05;;;;;;;18.17;11.00;;;2.30;99.90;;;;;;5025260;28;20205;-78
2023/04/06 00:34:32;;;;;;;15.87;10.17;;;2.30;99.90;;;;;;5024921;28;20275;-78
2023/04/06 00:36:59;;;;;;;19.33;11.17;;;2.90;99.90;;;;;;5026604;28;20227;-78
2023/04/06 00:39:26;;;;;;;18.10;11.33;;;2.20;99.90;;;;;;5025238;28;20261;-81
2023/04/06 00:41:53;;;;;;;21.20;10.93;;;2.70;99.90;;;;;;5025397;28;20238;-81
2023/04/06 00:44:22;;;;;;;22.30;11.50;;;2.10;99.90;;;;;;5023291;28;20197;-80
2023/04/06 00:46:50;;;;;;;16.50;10.80;;;2.10;99.90;;;;;;5020742;28;20354;-78
2023/04/06 00:49:16;;;;;;;17.17;10.57;;;2.10;99.90;;;;;;5023557;28;20253;-78
2023/04/06 00:51:43;;;;;;;18.83;10.17;;;2.10;99.90;;;;;;5018732;28;20927;-79
2023/04/06 00:54:10;;;;;;;18.83;11.37;;;1.80;99.90;;;;;;5024254;28;20220;-79
2023/04/06 00:56:37;;;;;;;21.37;11.93;;;1.90;99.90;;;;;;5020635;28;20642;-82
2023/04/06 00:59:04;;;;;;;16.50;10.07;;;2.00;99.90;;;;;;5019367;28;20681;-78
2023/04/06 01:01:32;;;;;;;17.40;10.97;;;2.00;99.90;;;;;;5020560;28;20413;-80
2023/04/06 01:03:59;;;;;;;19.97;10.83;;;2.00;99.90;;;;;;5019833;28;20220;-80
2023/04/06 01:06:26;;;;;;;19.50;11.53;;;1.90;99.90;;;;;;5042563;28;20224;-78
2023/04/06 01:08:53;;;;;;;21.83;11.47;;;1.90;99.90;;;;;;5016077;28;20260;-80
2023/04/06 01:11:19;;;;;;;20.27;11.63;;;1.80;99.90;;;;;;5019607;28;20245;-80
2023/04/06 01:13:46;;;;;;;19.23;10.87;;;1.80;99.90;;;;;;5022124;28;20753;-78
2023/04/06 01:16:13;;;;;;;18.47;12.30;;;1.80;99.90;;;;;;5020045;28;20209;-80
2023/04/06 01:18:42;;;;;;;16.07;10.63;;;1.80;99.90;;;;;;5028326;28;20290;-81
2023/04/06 01:21:15;;;;;;;20.37;12.47;;;1.70;99.90;;;;;;5023187;28;20209;-80
2023/04/06 01:23:45;;;;;;;23.57;14.13;;;1.70;99.90;;;;;;5040204;28;20207;-79
2023/04/06 01:26:13;;;;;;;26.63;13.60;;;1.70;99.90;;;;;;5025052;28;20660;-78
2023/04/06 01:28:40;;;;;;;25.57;15.03;;;1.70;99.90;;;;;;5044275;28;20711;-80
2023/04/06 01:31:08;;;;;;;26.03;15.20;;;1.60;99.90;;;;;;5024733;28;20287;-81
2023/04/06 01:33:35;;;;;;;24.80;14.57;;;1.60;99.90;;;;;;5040311;28;20232;-79
2023/04/06 01:36:03;;;;;;;23.60;14.03;;;1.60;99.90;;;;;;5040510;28;20208;-78
2023/04/06 01:38:30;;;;;;;22.97;13.60;;;1.50;99.90;;;;;;5041935;28;20646;-79
2023/04/06 01:40:57;;;;;;;22.77;14.07;;;1.60;99.90;;;;;;5043716;28;20291;-79
2023/04/06 01:43:24;;;;;;;26.43;13.97;;;1.50;99.90;;;;;;5042717;28;20242;-80
2023/04/06 01:45:51;;;;;;;26.97;14.50;;;1.50;99.90;;;;;;5042526;28;20211;-79
2023/04/06 01:48:18;;;;;;;24.77;14.50;;;1.40;99.90;;;;;;5038616;28;20229;-78
2023/04/06 01:50:45;;;;;;;23.47;14.40;;;1.40;99.90;;;;;;5042138;28;20299;-79
2023/04/06 01:53:12;;;;;;;26.73;13.73;;;1.40;99.90;;;;;;5040141;28;20251;-78
2023/04/06 01:55:38;;;;;;;26.93;13.83;;;1.40;99.90;;;;;;5042143;28;21148;-80
2023/04/06 01:58:05;;;;;;;23.67;13.63;;;1.40;99.90;;;;;;5042242;28;20291;-79
2023/04/06 02:00:35;;;;;;;23.93;14.73;;;1.30;99.90;;;;;;5031063;28;20218;-79
2023/04/06 02:03:02;;;;;;;27.07;15.33;;;1.30;99.90;;;;;;5038968;28;20279;-78
2023/04/06 02:05:30;;;;;;;25.03;14.63;;;1.30;99.90;;;;;;5044789;28;20203;-78
2023/04/06 02:07:57;;;;;;;23.67;13.77;;;1.30;99.90;;;;;;5036609;28;20239;-80
2023/04/06 02:10:24;;;;;;;25.73;13.83;;;1.30;99.90;;;;;;5042245;28;20564;-78
2023/04/06 02:12:53;;;;;;;24.90;14.30;;;1.30;99.90;;;;;;5040615;28;20205;-78
2023/04/06 02:15:20;;;;;;;22.53;12.87;;;1.30;99.90;;;;;;5041167;28;20227;-79
2023/04/06 02:17:47;;;;;;;27.40;14.60;;;1.20;99.90;;;;;;5019758;28;20232;-78
2023/04/06 02:20:14;;;;;;;23.00;14.30;;;1.20;99.90;;;;;;5041480;28;20205;-78
2023/04/06 02:22:40;;;;;;;23.13;14.33;;;1.20;99.90;;;;;;5021019;28;20205;-78
2023/04/06 02:25:07;;;;;;;26.13;15.30;;;1.20;99.90;;;;;;5038512;28;20210;-78
2023/04/06 02:27:35;;;;;;;27.60;14.30;;;1.20;99.90;;;;;;5038383;28;20258;-78
2023/04/06 02:30:05;;;;;;;26.60;14.97;;;1.20;99.90;;;;;;5043212;28;20207;-77
2023/04/06 02:32:32;;;;;;;24.03;13.97;;;1.20;99.90;;;;;;5040116;28;20236;-78
2023/04/06 02:35:00;;;;;;;25.50;14.57;;;1.20;99.90;;;;;;5025959;28;20315;-80
2023/04/06 02:37:29;;;;;;;29.73;16.37;;;1.20;99.90;;;;;;5040146;28;20209;-79
2023/04/06 02:39:56;;;;;;;24.13;14.40;;;1.20;99.90;;;;;;5039783;28;20286;-79
2023/04/06 02:42:22;;;;;;;33.37;15.60;;;1.10;99.90;;;;;;5042659;28;20256;-79
2023/04/06 02:44:49;;;;;;;24.30;14.33;;;1.20;99.90;;;;;;5041367;28;20220;-78
2023/04/06 02:47:16;;;;;;;27.50;14.83;;;1.10;99.90;;;;;;5037527;28;20258;-78
2023/04/06 02:49:43;;;;;;;23.87;15.07;;;1.20;99.90;;;;;;5041988;28;20285;-82
2023/04/06 02:52:12;;;;;;;25.73;14.40;;;1.20;99.90;;;;;;5022133;28;20301;-77
2023/04/06 02:54:39;;;;;;;26.97;15.30;;;1.20;99.90;;;;;;5040983;28;20678;-80
2023/04/06 02:57:07;;;;;;;27.30;15.13;;;1.10;99.90;;;;;;5034250;28;20586;-79
2023/04/06 02:59:34;;;;;;;29.73;15.07;;;1.10;99.90;;;;;;5039691;28;20252;-79
2023/04/06 03:02:01;;;;;;;25.03;14.47;;;1.10;99.90;;;;;;5038443;28;20202;-79
2023/04/06 03:04:28;;;;;;;28.93;16.10;;;1.10;99.90;;;;;;5045401;28;20314;-79
2023/04/06 03:06:55;;;;;;;29.27;16.20;;;1.00;99.90;;;;;;5049839;28;20257;-81
2023/04/06 03:09:22;;;;;;;25.20;15.07;;;1.10;99.90;;;;;;5022513;28;20310;-78
2023/04/06 03:11:49;;;;;;;25.93;15.10;;;1.20;99.90;;;;;;5040692;28;20201;-77
2023/04/06 03:14:21;;;;;;;27.63;15.30;;;1.10;99.90;;;;;;5041629;28;20207;-78
2023/04/06 03:16:48;;;;;;;26.27;15.10;;;1.10;99.90;;;;;;5042084;28;20200;-78
2023/04/06 03:19:15;;;;;;;25.57;13.83;;;1.10;99.90;;;;;;5043865;28;20233;-77
2023/04/06 03:21:42;;;;;;;29.60;16.00;;;1.10;99.90;;;;;;5042249;28;20235;-80
2023/04/06 03:24:09;;;;;;;25.83;15.00;;;1.10;99.90;;;;;;5042011;28;20817;-79
2023/04/06 03:26:35;;;;;;;25.33;14.30;;;1.10;99.90;;;;;;5042537;28;20567;-79
2023/04/06 03:29:02;;;;;;;26.47;14.37;;;1.10;99.90;;;;;;5041611;28;20289;-78
2023/04/06 03:31:30;;;;;;;24.40;13.93;;;1.10;99.90;;;;;;5045679;28;20613;-77
2023/04/06 03:33:57;;;;;;;25.97;14.17;;;1.10;99.90;;;;;;5041228;28;20535;-77
2023/04/06 03:36:25;;;;;;;23.23;13.73;;;1.10;99.90;;;;;;5025878;28;20206;-78
2023/04/06 03:38:53;;;;;;;24.73;15.30;;;1.10;99.90;;;;;;5044574;28;20740;-78
2023/04/06 03:41:20;;;;;;;26.90;14.70;;;1.10;99.90;;;;;;5034268;28;20198;-78
2023/04/06 03:43:47;;;;;;;24.10;14.70;;;1.20;99.90;;;;;;5043207;28;20635;-78
2023/04/06 03:46:14;;;;;;;23.80;14.73;;;1.20;99.90;;;;;;5041991;28;20517;-78
2023/04/06 03:48:41;;;;;;;27.87;15.37;;;1.20;99.90;;;;;;5041608;28;20248;-78
2023/04/06 03:51:08;;;;;;;26.47;14.27;;;1.20;99.90;;;;;;5030684;28;20213;-78
2023/04/06 03:53:36;;;;;;;27.63;15.13;;;1.20;99.90;;;;;;5045855;28;20222;-78
2023/04/06 03:56:04;;;;;;;23.27;14.67;;;1.50;99.90;;;;;;5024567;28;20578;-78
2023/04/06 03:58:31;;;;;;;26.33;13.97;;;1.20;99.90;;;;;;5046592;28;20253;-78
2023/04/06 04:00:58;;;;;;;22.67;13.97;;;1.30;99.90;;;;;;5046147;28;20255;-80
2023/04/06 04:03:27;;;;;;;25.73;13.83;;;1.30;99.90;;;;;;5040909;28;20258;-78
2023/04/06 04:05:57;;;;;;;27.40;13.67;;;1.30;99.90;;;;;;5033980;28;20198;-78
2023/04/06 04:08:25;;;;;;;27.73;14.60;;;1.30;99.90;;;;;;5041278;28;20242;-78
2023/04/06 04:10:51;;;;;;;29.73;14.90;;;1.40;99.90;;;;;;5043790;28;20205;-79
2023/04/06 04:13:18;;;;;;;26.40;13.83;;;1.40;99.90;;;;;;5043825;28;20222;-79
2023/04/06 04:15:47;;;;;;;21.43;13.87;;;1.40;99.90;;;;;;5041871;28;20300;-77
2023/04/06 04:18:14;;;;;;;27.53;13.90;;;1.40;99.90;;;;;;5041296;28;20235;-77
2023/04/06 04:20:43;;;;;;;24.67;13.87;;;1.80;99.90;;;;;;5040954;28;20632;-77
2023/04/06 04:23:12;;;;;;;28.33;15.40;;;1.50;99.90;;;;;;5040624;28;20216;-78
2023/04/06 04:25:39;;;;;;;28.60;13.50;;;1.50;99.90;;;;;;5042197;28;20235;-79
2023/04/06 04:28:06;;;;;;;23.50;13.37;;;1.60;99.90;;;;;;5042167;28;20323;-80
2023/04/06 04:30:32;;;;;;;25.00;14.70;;;1.60;99.90;;;;;;5043078;28;20729;-78
2023/04/06 04:32:59;;;;;;;24.13;14.17;;;1.60;99.90;;;;;;5045405;28;20228;-79
2023/04/06 04:35:27;;;;;;;27.03;14.60;;;1.60;99.90;;;;;;5042508;28;20241;-78
2023/04/06 04:37:54;;;;;;;21.60;13.97;;;1.50;99.90;;;;;;5045853;28;20647;-79
2023/04/06 04:40:21;;;;;;;28.33;14.30;;;1.70;99.90;;;;;;5024762;28;20335;-78
2023/04/06 04:42:50;;;;;;;23.57;14.30;;;1.70;99.90;;;;;;5041358;28;20250;-78
2023/04/06 04:45:17;;;;;;;23.43;12.87;;;1.70;99.90;;;;;;5042901;28;20208;-79
2023/04/06 04:47:44;;;;;;;27.30;14.53;;;2.10;99.90;;;;;;5044283;28;20315;-78
2023/04/06 04:50:11;;;;;;;23.43;13.13;;;1.80;99.90;;;;;;5041878;28;20967;-80
2023/04/06 04:52:38;;;;;;;28.00;15.27;;;1.80;99.90;;;;;;5040261;28;20312;-78
2023/04/06 04:55:05;;;;;;;23.43;13.93;;;1.80;99.90;;;;;;5041274;28;20211;-79
2023/04/06 04:57:32;;;;;;;26.23;14.47;;;1.90;99.90;;;;;;5041933;28;20222;-78
2023/04/06 04:59:58;;;;;;;28.40;14.77;;;1.90;99.90;;;;;;5043169;28;20200;-79
2023/04/06 05:02:25;;;;;;;22.37;13.63;;;2.10;99.90;;;;;;5043556;28;20213;-78
2023/04/06 05:04:52;;;;;;;26.33;13.87;;;2.10;99.90;;;;;;5045372;28;20726;-79
2023/04/06 05:07:20;;;;;;;25.43;13.80;;;2.00;99.90;;;;;;5042810;28;20219;-80
2023/04/06 05:09:47;;;;;;;23.23;13.90;;;2.10;99.90;;;;;;5040655;28;20206;-78
2023/04/06 05:12:14;;;;;;;24.77;14.23;;;2.10;99.90;;;;;;5048263;28;20287;-79
2023/04/06 05:14:41;;;;;;;23.80;14.07;;;2.30;99.90;;;;;;5043150;28;20239;-80
2023/04/06 05:17:08;;;;;;;23.40;13.70;;;1.70;99.90;;;;;;5021599;28;20270;-78
2023/04/06 05:19:35;;;;;;;27.13;15.03;;;2.50;99.90;;;;;;5038260;28;20262;-77
2023/04/06 05:22:02;;;;;;;23.20;14.13;;;2.40;99.90;;;;;;5044909;28;20221;-80
2023/04/06 05:24:29;;;;;;;23.27;13.10;;;1.50;99.90;;;;;;5043884;28;20213;-79
2023/04/06 05:26:56;;;;;;;23.97;13.97;;;2.50;99.90;;;;;;5042866;28;20259;-79
2023/04/06 05:29:26;;;;;;;23.50;13.63;;;2.60;99.90;;;;;;5021770;28;20250;-79
2023/04/06 05:31:52;;;;;;;23.73;14.37;;;2.70;99.90;;;;;;5043182;28;20221;-82
2023/04/06 05:34:19;;;;;;;27.40;15.43;;;2.70;99.90;;;;;;5042885;28;20224;-78
2023/04/06 05:36:46;;;;;;;23.47;14.97;;;2.50;99.90;;;;;;5041065;28;20284;-79
2023/04/06 05:39:13;;;;;;;26.83;14.33;;;2.90;99.90;;;;;;5041511;28;20210;-79
2023/04/06 05:41:40;;;;;;;24.57;15.27;;;3.00;99.90;;;;;;5044495;28;20198;-80
2023/04/06 05:44:07;;;;;;;23.80;14.30;;;3.00;99.90;;;;;;5028967;28;20232;-79
2023/04/06 05:46:33;;;;;;;21.80;14.57;;;3.10;99.90;;;;;;5044509;28;20610;-79
2023/04/06 05:49:00;;;;;;;23.77;14.60;;;3.20;99.90;;;;;;5042329;28;20293;-79
2023/04/06 05:51:27;;;;;;;27.20;14.67;;;3.30;99.90;;;;;;5040026;28;20555;-79
2023/04/06 05:53:54;;;;;;;24.20;15.47;;;3.30;99.90;;;;;;5044608;28;20189;-78
2023/04/06 05:56:21;;;;;;;24.07;14.37;;;3.60;99.90;;;;;;5042661;28;20259;-77
2023/04/06 05:58:48;;;;;;;22.87;14.33;;;3.60;99.90;;;;;;5021053;28;20208;-78
2023/04/06 06:01:15;;;;;;;25.47;14.53;;;3.70;99.90;;;;;;5042246;28;20206;-77
2023/04/06 06:03:42;;;;;;;25.47;14.77;;;3.90;99.90;;;;;;5040182;28;20219;-78
2023/04/06 06:06:09;;;;;;;24.10;14.23;;;3.90;99.90;;;;;;5025246;28;20248;-78
2023/04/06 06:08:36;;;;;;;26.87;14.53;;;4.60;99.90;;;;;;5041281;28;20238;-77
2023/04/06 06:11:03;;;;;;;28.10;16.00;;;4.10;99.90;;;;;;5041621;28;20239;-78
2023/04/06 06:13:30;;;;;;;21.87;13.93;;;4.40;99.90;;;;;;5039121;28;20312;-77
2023/04/06 06:15:57;;;;;;;28.27;14.70;;;4.30;99.90;;;;;;5042240;28;20197;-76
2023/04/06 06:18:24;;;;;;;26.00;14.60;;;4.40;99.90;;;;;;5023897;28;20244;-78
2023/04/06 06:20:50;;;;;;;28.13;15.03;;;4.40;99.90;;;;;;5043951;28;21166;-78
2023/04/06 06:23:17;;;;;;;25.27;14.87;;;4.50;99.90;;;;;;5042613;28;20205;-80
2023/04/06 06:25:44;;;;;;;23.73;14.23;;;4.50;99.90;;;;;;5041807;28;20212;-78
2023/04/06 06:28:11;;;;;;;26.97;15.60;;;4.60;99.90;;;;;;5042867;28;20314;-77
2023/04/06 06:30:37;;;;;;;20.90;13.63;;;4.60;99.90;;;;;;5041553;28;20217;-79
2023/04/06 06:33:04;;;;;;;30.40;14.20;;;4.60;99.90;;;;;;5028433;28;20218;-74
2023/04/06 06:35:31;;;;;;;24.53;13.53;;;4.70;99.90;;;;;;5044307;28;20197;-79
2023/04/06 06:37:58;;;;;;;21.87;13.67;;;5.40;99.90;;;;;;5041449;28;20208;-80
2023/04/06 06:40:25;;;;;;;22.23;13.73;;;5.00;99.90;;;;;;5040321;28;20262;-78
2023/04/06 06:42:52;;;;;;;24.80;13.93;;;5.30;99.90;;;;;;5044312;28;20203;-80
2023/04/06 06:45:20;;;;;;;21.10;13.23;;;5.40;99.90;;;;;;5025582;28;20263;-79
2023/04/06 06:47:47;;;;;;;21.27;13.10;;;5.70;99.90;;;;;;5047800;28;20217;-79
2023/04/06 06:50:14;;;;;;;21.57;13.47;;;6.30;99.90;;;;;;5046721;28;20200;-80
2023/04/06 06:52:41;;;;;;;21.70;13.57;;;6.10;99.90;;;;;;5046381;28;20538;-79
2023/04/06 06:55:10;;;;;;;23.07;15.00;;;6.40;99.90;;;;;;5046250;28;20199;-80
2023/04/06 06:57:38;;;;;;;21.53;13.23;;;6.70;99.90;;;;;;5049334;28;20207;-79
2023/04/06 07:00:07;;;;;;;24.57;13.50;;;7.10;99.90;;;;;;5049665;28;20202;-81
2023/04/06 07:02:35;;;;;;;22.83;14.13;;;7.30;99.90;;;;;;5041974;28;20502;-78
2023/04/06 07:05:03;;;;;;;22.20;13.93;;;7.40;99.90;;;;;;5048868;28;20204;-80
2023/04/06 07:07:42;;;;;;;19.60;13.33;;;7.50;99.90;;;;;;5042786;28;20685;-79
2023/04/06 07:10:09;;;;;;;24.23;13.90;;;7.70;99.90;;;;;;5027207;28;20227;-79
2023/04/06 07:12:36;;;;;;;24.77;14.03;;;7.90;99.90;;;;;;5026097;28;20254;-81
2023/04/06 07:15:03;;;;;;;20.67;13.60;;;8.30;99.90;;;;;;5041315;28;20209;-79
2023/04/06 07:17:30;;;;;;;23.70;15.80;;;8.90;99.90;;;;;;5045086;28;20217;-78
2023/04/06 07:19:57;;;;;;;21.60;13.57;;;9.40;99.90;;;;;;5028245;28;20232;-80
2023/04/06 07:22:24;;;;;;;21.83;14.00;;;9.70;99.90;;;;;;5046480;28;20203;-78
2023/04/06 07:24:51;;;;;;;23.70;13.77;;;10.10;99.90;;;;;;5041135;28;20682;-81
2023/04/06 07:27:18;;;;;;;20.60;13.17;;;10.60;99.90;;;;;;5040818;28;20650;-79
2023/04/06 07:29:45;;;;;;;23.40;14.90;;;10.80;99.90;;;;;;5047194;28;20236;-78
2023/04/06 07:32:12;;;;;;;21.27;14.57;;;10.90;99.90;;;;;;5031069;28;20238;-80
2023/04/06 07:34:39;;;;;;;21.93;14.53;;;10.80;99.90;;;;;;5035089;28;20211;-78
2023/04/06 07:37:05;;;;;;;23.40;15.13;;;10.70;99.90;;;;;;5048797;28;20201;-79
2023/04/06 07:39:32;;;;;;;20.90;14.07;;;10.80;99.90;;;;;;5041749;28;20247;-80
2023/04/06 07:41:59;;;;;;;23.47;14.27;;;10.70;99.90;;;;;;5047277;28;20205;-78
2023/04/06 07:44:26;;;;;;;20.40;13.73;;;10.80;99.90;;;;;;5040876;28;20654;-80
2023/04/06 07:46:53;;;;;;;21.73;14.47;;;11.00;99.90;;;;;;5046734;28;20273;-81
2023/04/06 07:49:20;;;;;;;24.07;15.13;;;11.10;99.90;;;;;;5030906;28;20286;-77
2023/04/06 07:51:47;;;;;;;19.93;13.80;;;11.10;99.90;;;;;;5043211;28;20641;-80
2023/04/06 07:54:14;;;;;;;22.90;15.17;;;11.10;99.90;;;;;;5041576;28;20249;-79
2023/04/06 07:56:41;;;;;;;24.23;15.97;;;11.00;99.90;;;;;;5041911;28;20194;-78
2023/04/06 07:59:08;;;;;;;22.23;14.80;;;10.80;99.90;;;;;;5043720;28;20205;-79
2023/04/06 08:01:35;;;;;;;22.47;14.40;;;10.70;99.90;;;;;;5044331;28;20209;-80
2023/04/06 08:04:02;;;;;;;26.73;15.10;;;10.70;99.90;;;;;;5042248;28;20360;-80
2023/04/06 08:06:29;;;;;;;24.67;14.80;;;10.70;99.90;;;;;;5044428;28;20255;-78
2023/04/06 08:08:56;;;;;;;22.37;14.87;;;10.70;99.90;;;;;;5049605;28;20231;-78
2023/04/06 08:11:23;;;;;;;22.83;14.67;;;10.80;99.90;;;;;;5044223;28;20837;-81
2023/04/06 08:13:50;;;;;;;24.40;15.10;;;10.90;99.90;;;;;;5047640;28;20288;-78
2023/04/06 08:16:17;;;;;;;22.60;14.50;;;11.00;99.90;;;;;;5047174;28;20233;-79
2023/04/06 08:18:44;;;;;;;25.00;15.17;;;11.30;99.90;;;;;;5044992;28;20265;-78
2023/04/06 08:21:10;;;;;;;21.63;14.67;;;11.50;99.90;;;;;;5046438;28;20213;-79
2023/04/06 08:23:37;;;;;;;23.33;14.80;;;12.00;99.90;;;;;;5042981;28;20282;-77
2023/04/06 08:26:04;;;;;;;23.30;15.00;;;12.30;99.90;;;;;;5052027;28;20213;-79
2023/04/06 08:28:31;;;;;;;24.63;14.87;;;12.50;99.90;;;;;;5051621;28;20518;-79
2023/04/06 08:30:58;;;;;;;22.93;15.03;;;12.50;99.90;;;;;;5050086;28;20323;-79
2023/04/06 08:33:25;;;;;;;23.73;15.27;;;12.40;99.90;;;;;;5052875;28;20225;-78
2023/04/06 08:35:51;;;;;;;22.23;14.93;;;12.30;99.90;;;;;;5052005;28;20193;-78
2023/04/06 08:38:18;;;;;;;22.87;15.40;;;12.10;99.90;;;;;;5047137;28;20209;-78
2023/04/06 08:40:47;;;;;;;23.50;14.77;;;12.00;99.90;;;;;;5054454;28;20270;-77
2023/04/06 08:43:16;;;;;;;24.53;14.80;;;11.80;99.90;;;;;;5048214;28;20215;-78
2023/04/06 08:45:43;;;;;;;22.80;14.90;;;11.60;99.90;;;;;;5034637;28;20630;-78
2023/04/06 08:48:21;;;;;;;23.43;15.43;;;11.60;99.90;;;;;;5049802;28;20655;-79
2023/04/06 08:50:48;;;;;;;24.03;15.73;;;11.50;99.90;;;;;;5042134;28;20562;-79
2023/04/06 08:53:16;;;;;;;25.13;15.40;;;11.50;99.90;;;;;;5045176;28;20749;-80
2023/04/06 08:55:44;;;;;;;24.73;15.20;;;11.60;99.90;;;;;;5051254;28;20291;-79
2023/04/06 08:58:11;;;;;;;23.47;15.13;;;11.50;99.90;;;;;;5054059;28;20514;-78
2023/04/06 09:00:39;;;;;;;24.73;14.57;;;11.40;99.90;;;;;;5049806;28;20292;-78
2023/04/06 09:03:07;;;;;;;26.77;15.70;;;11.50;99.90;;;;;;5049353;28;20243;-79
2023/04/06 09:05:34;;;;;;;25.37;15.33;;;11.40;99.90;;;;;;5056340;28;20373;-79
2023/04/06 09:08:01;;;;;;;23.03;16.07;;;11.40;99.90;;;;;;5055756;28;20209;-81
2023/04/06 09:10:29;;;;;;;24.23;15.23;;;11.60;99.90;;;;;;5035874;28;20214;-79
2023/04/06 09:13:06;;;;;;;24.23;16.10;;;11.40;99.90;;;;;;5047824;28;20650;-79
2023/04/06 09:15:33;;;;;;;23.87;15.83;;;11.70;99.90;;;;;;5057877;28;20258;-79
2023/04/06 09:18:01;;;;;;;24.40;15.83;;;11.90;99.90;;;;;;5055340;28;20230;-80
2023/04/06 09:20:30;;;;;;;24.97;15.23;;;11.90;99.90;;;;;;5061924;28;20668;-80
2023/04/06 09:22:57;;;;;;;27.10;15.70;;;12.10;99.90;;;;;;5052518;28;20242;-79
2023/04/06 09:25:28;;;;;;;24.30;16.30;;;12.20;99.90;;;;;;5057716;28;20656;-79
2023/04/06 09:28:03;;;;;;;26.57;15.10;;;12.40;99.90;;;;;;5053255;28;20240;-81
2023/04/06 09:30:30;;;;;;;27.87;16.97;;;12.50;99.90;;;;;;5055325;28;20282;-81
2023/04/06 09:32:59;;;;;;;23.53;15.33;;;12.60;99.90;;;;;;5053923;28;20554;-79
2023/04/06 09:35:27;;;;;;;23.53;15.03;;;12.90;99.90;;;;;;5049560;28;20714;-80
2023/04/06 09:37:55;;;;;;;26.23;15.40;;;13.10;99.90;;;;;;5051915;28;20285;-80
2023/04/06 09:40:22;;;;;;;23.27;14.67;;;13.40;99.90;;;;;;5055554;28;20216;-80
2023/04/06 09:42:52;;;;;;;26.73;14.93;;;13.50;99.90;;;;;;5054707;28;20252;-79
2023/04/06 09:45:20;;;;;;;26.97;15.27;;;13.60;99.90;;;;;;5050585;28;20224;-79
2023/04/06 09:47:48;;;;;;;22.70;14.30;;;13.90;99.90;;;;;;5056218;28;20244;-80
2023/04/06 09:50:16;;;;;;;26.17;15.20;;;14.10;99.90;;;;;;5053213;28;20640;-80
2023/04/06 09:52:50;;;;;;;22.43;14.97;;;14.30;99.90;;;;;;5045448;28;20247;-79
2023/04/06 09:55:24;;;;;;;22.67;15.50;;;14.30;99.90;;;;;;5053698;28;20236;-80
2023/04/06 09:58:04;;;;;;;25.77;15.23;;;14.70;99.90;;;;;;5025903;28;20292;-81
2023/04/06 10:00:34;;;;;;;28.87;16.23;;;14.80;99.90;;;;;;5055515;28;20262;-79
2023/04/06 10:03:16;;;;;;;26.00;15.30;;;14.90;99.90;;;;;;5048404;28;20217;-79
2023/04/06 10:05:50;;;;;;;22.83;15.07;;;15.00;99.90;;;;;;5048253;28;20197;-80
2023/04/06 10:08:19;;;;;;;25.83;15.40;;;15.10;99.90;;;;;;5048119;28;20252;-80
2023/04/06 10:10:46;;;;;;;22.63;14.87;;;15.00;99.90;;;;;;5045262;28;20221;-80
2023/04/06 10:13:13;;;;;;;24.50;15.87;;;15.00;99.90;;;;;;5029591;28;20197;-80
2023/04/06 10:15:41;;;;;;;25.07;15.27;;;15.00;99.90;;;;;;5035439;28;20287;-81
2023/04/06 10:18:08;;;;;;;28.40;16.90;;;14.80;99.60;;;;;;5046350;28;20237;-81
2023/04/06 10:20:50;;;;;;;24.70;16.53;;;14.90;99.50;;;;;;5047993;28;20475;-79
2023/04/06 10:23:29;;;;;;;23.80;15.47;;;14.90;99.50;;;;;;5048093;28;20320;-79
2023/04/06 10:25:57;;;;;;;25.57;16.90;;;14.90;99.70;;;;;;5043105;28;20292;-81
2023/04/06 10:28:26;;;;;;;27.77;16.27;;;14.70;99.80;;;;;;5043828;28;20295;-79
2023/04/06 10:31:01;;;;;;;29.83;17.17;;;14.80;99.80;;;;;;5041290;28;20736;-79
2023/04/06 10:33:28;;;;;;;29.23;16.57;;;14.90;99.60;;;;;;5050397;28;20231;-77
2023/04/06 10:35:55;;;;;;;26.13;17.50;;;14.80;99.80;;;;;;5046335;28;20193;-79
2023/04/06 10:38:42;;;;;;;26.67;16.60;;;14.70;99.90;;;;;;5050593;28;20614;-79
2023/04/06 10:41:11;;;;;;;26.13;16.73;;;14.80;99.90;;;;;;5051158;28;20197;-80
2023/04/06 10:43:40;;;;;;;29.07;17.03;;;14.70;99.90;;;;;;5050300;28;20241;-79
2023/04/06 10:46:09;;;;;;;27.43;16.50;;;14.60;99.60;;;;;;5046881;28;20586;-79
2023/04/06 10:48:45;;;;;;;28.10;17.03;;;14.50;99.30;;;;;;5051420;28;20217;-80
2023/04/06 10:51:16;;;;;;;26.73;16.83;;;14.30;99.10;;;;;;5054861;28;20235;-81
2023/04/06 10:53:45;;;;;;;28.07;15.87;;;14.20;99.70;;;;;;5058732;28;20193;-79
2023/04/06 10:56:15;;;;;;;28.00;16.60;;;14.10;99.80;;;;;;5038031;28;20197;-79
2023/04/06 10:58:50;;;;;;;27.73;16.10;;;14.10;99.60;;;;;;5033319;28;20194;-81
2023/04/06 11:01:21;;;;;;;29.00;16.13;;;14.10;99.80;;;;;;5053558;28;20205;-79
2023/04/06 11:03:58;;;;;;;26.17;15.23;;;14.10;99.80;;;;;;5046908;28;20283;-79
2023/04/06 11:06:31;;;;;;;27.70;15.30;;;14.10;99.90;;;;;;5039044;28;20251;-81
2023/04/06 11:08:58;;;;;;;26.13;16.63;;;14.10;99.90;;;;;;5055556;28;20266;-80
2023/04/06 11:11:26;;;;;;;25.83;16.23;;;14.00;99.90;;;;;;5056048;28;20240;-80
2023/04/06 11:13:56;;;;;;;25.40;14.20;;;14.00;99.90;;;;;;5051107;28;20197;-78
2023/04/06 11:16:33;;;;;;;22.63;14.43;;;13.90;99.90;;;;;;5044121;28;20254;-78
2023/04/06 11:19:02;;;;;;;25.43;15.20;;;13.70;99.90;;;;;;5044525;28;20263;-81
2023/04/06 11:21:39;;;;;;;22.47;14.33;;;13.40;99.90;;;;;;5051579;28;20201;-81
2023/04/06 11:24:23;;;;;;;20.53;12.97;;;13.40;99.90;;;;;;5042448;28;20192;-78
2023/04/06 11:27:00;;;;;;;21.10;11.57;;;13.20;99.90;;;;;;5051893;28;20194;-77
2023/04/06 11:29:30;;;;;;;18.83;11.13;;;13.20;99.90;;;;;;5044164;28;20224;-81
2023/04/06 11:32:03;;;;;;;19.57;11.47;;;13.10;99.90;;;;;;5046574;28;20205;-80
2023/04/06 11:34:33;;;;;;;17.40;10.73;;;13.10;99.90;;;;;;5046371;28;20200;-79
2023/04/06 11:37:02;;;;;;;17.40;11.27;;;13.10;99.90;;;;;;5047077;28;20551;-79
2023/04/06 11:39:30;;;;;;;19.67;11.20;;;13.20;99.90;;;;;;5050432;28;20244;-77
2023/04/06 11:42:04;;;;;;;17.70;12.47;;;13.30;99.90;;;;;;5036542;28;20201;-79
2023/04/06 11:44:49;;;;;;;17.70;10.97;;;13.20;99.90;;;;;;5055182;28;20278;-78
2023/04/06 11:47:15;;;;;;;17.10;11.10;;;13.20;99.90;;;;;;5046055;28;20224;-78
2023/04/06 11:49:47;;;;;;;16.50;10.97;;;13.00;99.90;;;;;;5054378;28;20217;-79
2023/04/06 11:52:24;;;;;;;18.43;11.83;;;12.90;99.90;;;;;;5050111;28;20200;-81
2023/04/06 11:54:53;;;;;;;17.10;11.80;;;13.00;99.90;;;;;;5038615;28;20204;-79
2023/04/06 11:57:25;;;;;;;18.87;12.67;;;13.10;99.90;;;;;;5047918;28;20269;-78
2023/04/06 11:59:52;;;;;;;20.00;12.57;;;13.10;99.90;;;;;;5051105;28;20287;-81
2023/04/06 12:02:19;;;;;;;20.70;13.53;;;13.20;99.90;;;;;;5051716;28;20228;-79
2023/04/06 12:04:46;;;;;;;21.50;13.97;;;13.20;99.90;;;;;;5053630;28;20217;-78
2023/04/06 12:07:13;;;;;;;20.03;13.63;;;13.10;99.90;;;;;;5030644;28;20215;-79
2023/04/06 12:09:40;;;;;;;22.07;13.80;;;13.10;99.90;;;;;;5035075;28;20740;-79
2023/04/06 12:12:06;;;;;;;19.53;13.27;;;13.10;99.90;;;;;;5053893;28;20591;-79
2023/04/06 12:14:33;;;;;;;19.93;14.03;;;13.00;99.90;;;;;;5060603;28;20201;-79
2023/04/06 12:17:00;;;;;;;20.77;14.17;;;13.10;99.90;;;;;;5054607;28;20704;-78
2023/04/06 12:19:27;;;;;;;21.20;14.57;;;13.30;99.90;;;;;;5048561;28;20295;-79
2023/04/06 12:21:57;;;;;;;20.60;13.37;;;13.20;99.90;;;;;;5045101;28;20198;-79
2023/04/06 12:24:24;;;;;;;20.93;14.50;;;13.30;99.90;;;;;;5050508;28;20204;-83
2023/04/06 12:26:51;;;;;;;18.80;13.97;;;13.20;99.90;;;;;;5039594;28;20194;-81
2023/04/06 12:29:28;;;;;;;22.33;14.00;;;13.20;99.90;;;;;;5047505;28;20308;-82
2023/04/06 12:31:56;;;;;;;20.17;13.80;;;13.20;99.90;;;;;;5046854;28;20452;-78
2023/04/06 12:34:22;;;;;;;21.23;14.17;;;13.20;99.90;;;;;;5055355;28;20582;-79
2023/04/06 12:36:49;;;;;;;20.73;13.50;;;13.20;99.90;;;;;;5052978;28;20300;-81